Time;durP1;ratioP1;P1;durP2;ratioP2;P2;SDS_P1;SDS_P2;PMS_P1;PMS_P2;Temp;Humidity;BMP_temperature;BMP_pressure;BME280_temperature;BME280_humidity;BME280_pressure;Samples;Min_cycle;Max_cycle;Signal;HPM_P1;HPM_P2
2023/05/23 04:39:09;;;;;;;8.20;4.40;;;;;;;16.81;100.00;99893.42;109715;1277;22410;-39
2023/05/23 04:41:44;;;;;;;5.80;3.90;;;;;;;16.96;100.00;99893.11;109935;1278;23079;-44
2023/05/23 04:44:25;;;;;;;10.10;4.20;;;;;;;17.13;100.00;99887.45;109957;1272;23570;-44
2023/05/23 04:47:08;;;;;;;6.50;4.30;;;;;;;17.36;100.00;99879.98;109996;1271;22429;-39
2023/05/23 04:49:53;;;;;;;7.20;4.00;;;;;;;17.62;100.00;99881.73;109876;1277;22428;-39
2023/05/23 04:52:21;;;;;;;8.80;3.80;;;;;;;17.82;100.00;99880.15;109994;1273;22490;-43
2023/05/23 04:54:49;;;;;;;6.40;3.80;;;;;;;17.96;100.00;99878.57;109880;1270;23042;-43
2023/05/23 04:57:17;;;;;;;5.30;3.70;;;;;;;18.06;100.00;99876.60;109914;1273;22385;-43
2023/05/23 04:59:45;;;;;;;7.40;3.60;;;;;;;18.16;100.00;99884.71;110041;1277;22225;-38
2023/05/23 05:02:13;;;;;;;7.30;4.10;;;;;;;18.31;100.00;99882.89;110075;1273;22960;-43
2023/05/23 05:04:40;;;;;;;11.20;4.70;;;;;;;18.49;98.86;99879.37;109913;1273;22442;-39
2023/05/23 05:07:09;;;;;;;10.40;4.50;;;;;;;18.67;96.90;99877.81;109346;1278;22130;-43
2023/05/23 05:09:38;;;;;;;9.20;3.90;;;;;;;18.84;94.91;99878.36;109503;1278;22549;-39
2023/05/23 05:12:11;;;;;;;7.50;3.80;;;;;;;19.01;93.13;99875.19;109086;1270;23045;-39
2023/05/23 05:14:39;;;;;;;12.80;4.40;;;;;;;19.20;91.30;99873.38;109091;1277;22628;-39
2023/05/23 05:17:06;;;;;;;9.30;4.80;;;;;;;19.34;89.57;99872.92;110006;1272;22470;-44
2023/05/23 05:19:46;;;;;;;8.50;4.80;;;;;;;19.47;88.09;99871.83;109865;1276;22348;-43
2023/05/23 05:22:14;;;;;;;8.70;4.20;;;;;;;19.62;87.20;99869.11;109874;1273;23112;-39
2023/05/23 05:24:42;;;;;;;7.90;3.30;;;;;;;19.79;85.91;99867.45;109638;1270;128178;-40
2023/05/23 05:27:10;;;;;;;11.10;3.30;;;;;;;19.98;83.80;99869.98;109509;1273;23343;-39
2023/05/23 05:29:38;;;;;;;6.20;3.30;;;;;;;20.16;80.65;99863.80;109458;1273;23482;-41
2023/05/23 05:32:07;;;;;;;9.30;3.10;;;;;;;20.32;78.09;99863.08;109433;1274;23009;-44
2023/05/23 05:34:43;;;;;;;10.60;3.00;;;;;;;20.45;76.62;99864.80;109345;1276;23129;-45
2023/05/23 05:38:15;;;;;;;8.10;3.20;;;;;;;20.59;75.79;99860.27;109524;1270;22499;-45
2023/05/23 05:42:09;;;;;;;4.30;3.10;;;;;;;20.72;74.26;99859.59;108372;1270;22281;-39
2023/05/23 05:53:07;;;;;;;8.10;4.00;;;;;;;20.90;72.92;99862.29;109714;1276;22409;-39
2023/05/23 05:56:47;;;;;;;9.70;3.80;;;;;;;21.02;72.49;99862.40;109776;1269;22377;-45
2023/05/23 05:59:25;;;;;;;7.20;3.80;;;;;;;21.14;72.06;99862.15;109103;1269;23226;-48
2023/05/23 06:02:07;;;;;;;9.60;4.20;;;;;;;21.25;71.31;99864.43;108845;1269;22608;-45
2023/05/23 06:04:38;;;;;;;13.70;3.80;;;;;;;21.34;71.14;99862.79;109413;1277;22518;-39
2023/05/23 06:07:08;;;;;;;8.00;3.60;;;;;;;21.42;70.40;99866.24;108799;1270;22594;-40
2023/05/23 06:09:36;;;;;;;6.00;3.40;;;;;;;21.53;69.15;99861.05;108491;1275;22759;-45
2023/05/23 06:12:05;;;;;;;11.10;3.40;;;;;;;21.62;68.44;99859.36;109313;1270;23234;-40
2023/05/23 06:14:34;;;;;;;8.80;2.70;;;;;;;21.71;67.42;99856.77;109683;1270;23336;-39
2023/05/23 06:17:07;;;;;;;15.40;3.10;;;;;;;21.77;66.86;99852.70;109452;1275;24929;-45
2023/05/23 06:19:55;;;;;;;7.00;2.60;;;;;;;21.82;66.74;99849.94;108760;1272;22529;-39
2023/05/23 06:35:28;;;;;;;6.80;2.20;;;;;;;22.47;62.51;99839.13;108355;1272;23030;-39
2023/05/23 06:38:41;;;;;;;6.70;2.60;;;;;;;22.67;61.80;99831.98;109817;1272;22286;-45
2023/05/23 06:41:39;;;;;;;10.30;2.60;;;;;;;22.81;62.00;99832.74;109934;1270;22362;-39
2023/05/23 06:44:08;;;;;;;10.50;2.60;;;;;;;22.92;61.54;99824.86;108333;1272;23778;-43
2023/05/23 06:46:59;;;;;;;8.20;2.10;;;;;;;23.01;60.52;99823.09;108412;1276;23887;-41
2023/05/23 06:49:30;;;;;;;3.80;2.10;;;;;;;23.08;59.97;99819.98;109203;1270;22476;-39
2023/05/23 06:52:01;;;;;;;8.10;2.40;;;;;;;23.09;58.31;99821.51;109178;1270;24134;-39
2023/05/23 06:54:30;;;;;;;3.70;2.00;;;;;;;23.09;57.68;99821.52;109525;1274;22554;-39
2023/05/23 06:57:31;;;;;;;16.30;2.60;;;;;;;23.08;56.44;99819.43;108109;1275;25122;-38
2023/05/23 07:01:07;;;;;;;4.20;1.90;;;;;;;23.08;55.93;99821.41;109605;1264;22404;-46
2023/05/23 07:04:11;;;;;;;9.30;2.70;;;;;;;23.16;55.96;99819.00;109362;1272;22353;-46
2023/05/23 07:07:42;;;;;;;13.80;3.00;;;;;;;23.27;56.64;99809.98;109508;1261;22344;-45
2023/05/23 07:11:04;;;;;;;6.60;2.50;;;;;;;23.33;56.27;99809.08;109435;1272;25325;-41
2023/05/23 07:14:04;;;;;;;8.20;2.40;;;;;;;23.36;55.52;99808.00;109851;1270;22447;-47
2023/05/23 07:17:15;;;;;;;6.90;2.20;;;;;;;23.47;55.02;99806.45;109965;1270;22387;-42
2023/05/23 07:20:07;;;;;;;8.90;2.10;;;;;;;23.62;55.11;99804.10;109956;1270;22283;-48
2023/05/23 07:22:36;;;;;;;7.70;2.40;;;;;;;23.74;55.67;99801.98;109780;1272;22380;-41
2023/05/23 07:25:04;;;;;;;4.80;2.40;;;;;;;23.83;55.51;99803.02;109593;1272;22499;-42
2023/05/23 07:27:33;;;;;;;6.50;1.80;;;;;;;23.87;55.09;99796.31;109986;1268;23287;-41
2023/05/23 07:30:01;;;;;;;4.40;2.20;;;;;;;23.90;54.96;99796.14;109873;1275;22402;-41
2023/05/23 07:32:30;;;;;;;6.90;2.10;;;;;;;23.98;54.89;99792.98;109814;1270;23056;-49
2023/05/23 07:35:01;;;;;;;4.60;2.40;;;;;;;24.09;53.32;99794.27;109248;1270;23296;-48
2023/05/23 07:37:29;;;;;;;11.10;2.20;;;;;;;24.07;53.02;99793.29;109489;1276;23125;-47
2023/05/23 07:39:59;;;;;;;5.40;2.10;;;;;;;23.99;52.45;99791.67;109366;1276;22517;-41
2023/05/23 07:42:30;;;;;;;;;;;;;;;23.77;52.57;99793.07;108728;1274;23020;-48
2023/05/23 07:44:59;;;;;;;8.50;1.70;;;;;;;23.67;52.84;99795.63;109975;1269;23251;-44
2023/05/23 07:47:30;;;;;;;5.70;1.70;;;;;;;23.56;52.14;99790.59;109292;1269;23334;-42
2023/05/23 07:50:01;;;;;;;5.20;1.60;;;;;;;23.47;52.14;99790.27;108850;1269;24853;-42
2023/05/23 07:52:31;;;;;;;11.50;2.00;;;;;;;23.50;52.11;99783.67;109307;1264;22703;-40
2023/05/23 07:55:00;;;;;;;3.90;1.50;;;;;;;23.62;52.61;99782.41;109582;1273;22335;-41
2023/05/23 07:57:28;;;;;;;8.60;2.70;;;;;;;23.77;52.81;99781.29;109770;1272;22358;-47
2023/05/23 07:59:55;;;;;;;6.50;1.80;;;;;;;23.93;52.40;99777.63;109670;1272;22400;-47
2023/05/23 08:02:23;;;;;;;8.20;2.40;;;;;;;23.94;52.04;99778.27;109601;1270;22950;-46
2023/05/23 08:04:52;;;;;;;6.10;2.30;;;;;;;23.87;52.17;99773.73;109285;1272;23205;-41
2023/05/23 08:07:20;;;;;;;12.10;1.90;;;;;;;23.74;52.18;99769.95;109507;1270;22347;-48
2023/05/23 08:10:00;;;;;;;6.70;1.80;;;;;;;23.65;52.52;99776.17;109178;1273;23127;-47
2023/05/23 08:13:10;;;;;;;6.50;2.00;;;;;;;23.72;53.15;99771.87;109796;1276;23267;-48
2023/05/23 08:16:07;;;;;;;6.30;1.90;;;;;;;23.93;52.93;99764.66;109499;1270;22456;-42
2023/05/23 08:19:18;;;;;;;10.00;2.00;;;;;;;24.19;51.79;99763.30;109785;1272;22408;-47
2023/05/23 08:21:48;;;;;;;9.90;2.00;;;;;;;24.46;50.73;99761.07;109775;1270;22490;-40
2023/05/23 08:24:16;;;;;;;7.20;1.60;;;;;;;24.63;50.43;99760.79;108789;1272;22338;-47
2023/05/23 08:26:44;;;;;;;8.50;1.90;;;;;;;24.82;50.40;99754.73;109379;1272;22543;-41
2023/05/23 08:29:13;;;;;;;5.80;1.80;;;;;;;25.04;50.07;99759.48;109333;1270;22401;-41
2023/05/23 08:31:49;;;;;;;6.70;2.00;;;;;;;25.18;48.69;99762.08;109286;1270;22956;-42
2023/05/23 08:34:39;;;;;;;2.80;1.70;;;;;;;25.17;47.99;99760.77;108729;1270;22800;-48
2023/05/23 08:37:21;;;;;;;5.60;2.00;;;;;;;25.12;47.80;99758.77;109304;1271;22645;-47
2023/05/23 08:40:22;;;;;;;6.20;2.20;;;;;;;25.14;48.42;99753.79;109129;1270;22398;-40
2023/05/23 08:42:57;;;;;;;2.90;1.30;;;;;;;25.30;47.05;99752.86;109185;1275;23191;-48
2023/05/23 08:45:29;;;;;;;7.70;1.90;;;;;;;25.42;45.84;99745.98;109652;1272;22496;-41
2023/05/23 08:48:02;;;;;;;2.70;1.90;;;;;;;25.54;46.31;99750.81;108923;1262;22552;-40
2023/05/23 08:50:33;;;;;;;4.00;1.60;;;;;;;25.72;45.96;99746.56;109110;1270;22407;-40
2023/05/23 08:53:01;;;;;;;6.60;1.80;;;;;;;25.92;45.45;99742.24;109274;1270;23049;-49
2023/05/23 08:55:30;;;;;;;3.20;1.50;;;;;;;26.17;45.47;99740.27;109508;1270;22335;-47
2023/05/23 08:57:59;;;;;;;6.20;2.20;;;;;;;26.37;43.90;99738.26;109760;1272;22481;-48
2023/05/23 09:00:49;;;;;;;11.50;2.10;;;;;;;26.27;42.81;99735.96;109634;1272;22355;-41
2023/05/23 09:03:21;;;;;;;4.50;2.30;;;;;;;26.05;43.27;99737.73;109696;1274;22181;-47
2023/05/23 09:06:11;;;;;;;3.60;1.60;;;;;;;25.83;43.78;99733.27;109762;1272;23482;-41
2023/05/23 09:08:41;;;;;;;3.90;2.00;;;;;;;25.61;44.65;99733.78;109227;1263;22520;-41
2023/05/23 09:11:11;;;;;;;2.80;1.80;;;;;;;25.43;44.80;99736.83;109948;1270;22412;-42
2023/05/23 09:13:40;;;;;;;4.20;2.00;;;;;;;25.31;44.92;99735.48;109825;1270;22531;-41
2023/05/23 09:16:10;;;;;;;5.70;2.10;;;;;;;25.21;44.26;99737.09;109910;1276;22474;-47
2023/05/23 09:18:47;;;;;;;3.30;1.90;;;;;;;25.12;44.39;99736.66;109864;1270;22621;-48
2023/05/23 09:21:16;;;;;;;5.70;1.90;;;;;;;25.06;44.77;99732.61;109836;1275;22348;-48
2023/05/23 09:24:19;;;;;;;4.10;1.60;;;;;;;25.00;45.06;99732.27;109836;1272;22400;-47
2023/05/23 09:26:47;;;;;;;4.20;1.80;;;;;;;24.97;45.09;99729.80;109988;1273;22366;-49
2023/05/23 09:29:19;;;;;;;6.50;1.80;;;;;;;24.98;45.19;99729.41;109684;1270;22366;-47
2023/05/23 09:31:47;;;;;;;5.40;1.80;;;;;;;24.95;45.57;99732.06;109749;1270;22341;-46
2023/05/23 09:34:15;;;;;;;2.70;1.80;;;;;;;24.87;45.20;99732.24;109620;1272;22366;-41
2023/05/23 09:36:43;;;;;;;6.60;2.40;;;;;;;24.74;45.00;99734.05;109558;1270;23072;-46
2023/05/23 09:39:11;;;;;;;4.70;1.90;;;;;;;24.58;45.61;99734.77;109654;1271;23220;-46
2023/05/23 09:41:47;;;;;;;6.20;2.10;;;;;;;24.40;45.81;99733.66;109654;1269;22327;-46
2023/05/23 09:53:24;;;;;;;10.70;1.90;;;;;;;24.17;45.64;99723.91;109767;1270;23180;-50
2023/05/23 09:57:20;;;;;;;9.90;2.20;;;;;;;24.30;45.36;99721.23;109799;1272;22331;-52
2023/05/23 10:00:55;;;;;;;4.80;1.80;;;;;;;24.65;44.63;99714.86;109805;1270;22855;-52
2023/05/23 10:04:16;;;;;;;6.60;2.00;;;;;;;24.99;43.23;99714.70;109809;1272;22903;-50
2023/05/23 10:07:00;;;;;;;3.80;1.40;;;;;;;25.25;42.53;99710.95;109845;1272;22278;-51
2023/05/23 10:09:30;;;;;;;6.50;2.10;;;;;;;25.51;42.64;99705.89;109666;1270;22600;-52
2023/05/23 10:12:35;;;;;;;6.60;2.10;;;;;;;25.76;41.96;99703.02;109855;1270;22360;-45
2023/05/23 10:15:04;;;;;;;8.70;1.80;;;;;;;25.96;41.35;99697.66;109845;1270;22399;-44
2023/05/23 10:18:00;;;;;;;5.80;1.40;;;;;;;26.07;41.17;99697.95;109838;1270;22335;-54
2023/05/23 10:20:32;;;;;;;6.60;1.60;;;;;;;25.99;40.24;99695.64;109676;1270;23449;-47
2023/05/23 10:23:02;;;;;;;3.00;1.80;;;;;;;25.83;39.64;99693.27;109797;1276;22652;-45
2023/05/23 10:25:29;;;;;;;4.60;1.80;;;;;;;25.74;39.56;99695.88;109759;1272;22565;-45
2023/05/23 10:27:58;;;;;;;4.70;1.80;;;;;;;25.88;39.86;99686.83;109697;1269;23429;-44
2023/05/23 10:30:30;;;;;;;5.20;1.40;;;;;;;26.23;39.41;99686.73;109768;1254;24050;-44
2023/05/23 10:32:58;;;;;;;8.10;1.50;;;;;;;26.60;38.06;99681.27;109669;1270;22631;-40
2023/05/23 10:35:49;;;;;;;7.80;2.50;;;;;;;26.94;37.61;99675.83;109127;1271;22670;-45
2023/05/23 10:38:40;;;;;;;7.60;1.60;;;;;;;27.15;37.11;99671.02;109808;1276;22280;-40
2023/05/23 10:41:30;;;;;;;10.10;2.00;;;;;;;27.17;36.35;99669.59;108841;1270;23234;-40
2023/05/23 10:44:36;;;;;;;9.50;1.70;;;;;;;27.00;36.20;99671.04;109094;1272;22887;-40
2023/05/23 10:47:06;;;;;;;15.90;1.80;;;;;;;26.74;35.64;99675.19;108825;1273;22783;-44
2023/05/23 10:49:38;;;;;;;2.50;1.70;;;;;;;26.64;35.47;99671.87;109960;1270;22313;-44
2023/05/23 10:52:06;;;;;;;1.90;1.20;;;;;;;26.57;35.33;99669.00;109816;1276;22450;-40
2023/05/23 10:54:55;;;;;;;9.90;1.80;;;;;;;26.59;36.33;99670.45;109966;1273;22447;-40
2023/05/23 10:57:26;;;;;;;5.10;1.50;;;;;;;26.71;36.10;99669.57;109617;1276;22260;-40
2023/05/23 10:59:54;;;;;;;9.50;2.10;;;;;;;26.83;35.79;99672.95;109943;1273;23764;-45
2023/05/23 11:02:26;;;;;;;7.70;1.80;;;;;;;26.91;35.58;99673.19;109938;1276;22475;-45
2023/05/23 11:05:27;;;;;;;9.30;1.60;;;;;;;26.93;35.59;99677.89;109986;1273;23086;-40
2023/05/23 11:08:13;;;;;;;6.10;1.70;;;;;;;26.92;34.98;99674.02;109891;1277;22206;-40
2023/05/23 11:11:00;;;;;;;9.20;1.30;;;;;;;26.91;35.27;99670.14;110007;1277;22928;-44
2023/05/23 11:13:54;;;;;;;4.40;1.70;;;;;;;26.91;34.92;99671.41;110049;1276;22323;-44
2023/05/23 11:16:29;;;;;;;4.30;1.50;;;;;;;26.87;33.84;99668.84;110022;1274;22263;-44
2023/05/23 11:19:17;;;;;;;5.90;1.30;;;;;;;26.82;34.28;99667.63;110025;1276;22283;-44
2023/05/23 11:21:45;;;;;;;5.50;1.30;;;;;;;26.85;34.42;99667.73;110058;1276;23100;-40
2023/05/23 11:24:13;;;;;;;7.80;1.70;;;;;;;26.93;34.49;99667.30;110059;1276;22408;-42
2023/05/23 11:26:41;;;;;;;4.50;1.50;;;;;;;27.01;33.79;99670.28;110115;1272;23217;-40
2023/05/23 11:29:09;;;;;;;2.40;1.20;;;;;;;27.04;33.48;99673.06;109406;1276;22544;-40
2023/05/23 11:31:37;;;;;;;7.30;1.70;;;;;;;27.08;33.36;99669.73;108734;1273;22533;-40
2023/05/23 11:34:05;;;;;;;6.70;1.80;;;;;;;27.13;33.47;99671.50;107518;1276;23764;-39
2023/05/23 11:36:33;;;;;;;6.10;1.50;;;;;;;27.08;33.27;99669.21;107596;1276;22571;-45
2023/05/23 11:39:02;;;;;;;4.40;2.00;;;;;;;27.01;33.04;99672.62;107136;1276;24382;-44
2023/05/23 11:41:30;;;;;;;5.70;1.80;;;;;;;26.96;33.27;99676.23;107519;1273;22516;-40
2023/05/23 11:44:00;;;;;;;10.40;1.80;;;;;;;26.98;33.29;99675.38;108712;1276;22654;-41
2023/05/23 11:46:28;;;;;;;4.50;1.40;;;;;;;26.97;33.18;99669.67;106933;1276;22533;-44
2023/05/23 11:48:56;;;;;;;5.70;1.50;;;;;;;26.98;33.12;99668.86;108209;1276;22336;-45
2023/05/23 11:51:23;;;;;;;3.40;1.40;;;;;;;26.99;32.77;99668.06;107659;1275;25268;-40
2023/05/23 11:53:51;;;;;;;5.70;1.40;;;;;;;26.93;32.83;99666.02;107562;1277;22548;-45
2023/05/23 11:56:19;;;;;;;4.20;1.40;;;;;;;26.91;32.37;99666.76;107970;1276;23452;-40
2023/05/23 11:58:47;;;;;;;13.50;1.50;;;;;;;26.87;32.20;99669.42;110183;1276;22178;-38
2023/05/23 12:01:15;;;;;;;5.20;1.70;;;;;;;26.88;32.41;99672.73;109356;1277;22326;-45
2023/05/23 12:03:50;;;;;;;2.10;1.10;;;;;;;26.82;31.93;99672.98;110059;1276;22228;-45
2023/05/23 12:06:18;;;;;;;9.90;1.60;;;;;;;26.79;32.14;99670.89;110075;1276;22380;-45
2023/05/23 12:08:48;;;;;;;5.00;1.50;;;;;;;26.76;32.93;99672.73;110005;1278;22200;-40
2023/05/23 12:11:16;;;;;;;3.40;1.50;;;;;;;26.77;32.36;99665.85;110054;1278;23467;-41
2023/05/23 12:13:45;;;;;;;3.70;1.50;;;;;;;26.76;32.36;99663.76;109948;1278;22716;-41
2023/05/23 12:16:13;;;;;;;3.50;1.60;;;;;;;26.81;32.51;99665.79;110024;1278;22684;-41
2023/05/23 12:18:41;;;;;;;9.90;1.50;;;;;;;26.79;32.59;99659.96;109954;1277;22994;-41
2023/05/23 12:21:09;;;;;;;3.20;1.70;;;;;;;26.81;33.38;99661.77;110026;1277;22954;-38
2023/05/23 12:23:38;;;;;;;4.80;1.30;;;;;;;26.79;33.98;99654.77;110087;1277;23194;-38
2023/05/23 12:26:05;;;;;;;2.90;1.30;;;;;;;26.74;33.73;99651.40;110010;1277;22189;-43
2023/05/23 12:28:38;;;;;;;5.20;1.60;;;;;;;26.70;34.52;99653.18;109997;1275;23122;-39
2023/05/23 12:31:09;;;;;;;5.00;1.90;;;;;;;26.60;34.73;99653.76;109869;1270;22881;-38
2023/05/23 12:33:43;;;;;;;2.90;1.50;;;;;;;26.48;34.97;99653.44;109998;1275;22988;-39
2023/05/23 12:36:11;;;;;;;7.00;1.40;;;;;;;26.37;34.86;99653.85;110053;1270;22402;-43
2023/05/23 12:38:39;;;;;;;3.20;1.40;;;;;;;26.26;35.05;99650.98;109997;1272;22447;-44
2023/05/23 12:41:10;;;;;;;2.50;1.20;;;;;;;26.15;34.94;99648.77;109046;1276;23532;-39
2023/05/23 12:43:39;;;;;;;1.30;0.90;;;;;;;26.18;33.77;99649.23;107542;1277;22202;-39
